Providence, Rhode Island
Traffic Map
Current Weather Conditions
Providence, Rhode Island
Overcast
Overcast
41°
Feels Like: 41°
Wind Chill: 41° Ceiling: 8000
Heat Index: 41° Visibility: 10mi
Dew Point: 37° Wind: 0mph
Humidity: 86% Direction: ° ()
Pressure: 30.16in Gusts: 0mph
Raw Report DataKPVD 230751Z 00000KT 10SM OVC080 05/03 A3016 RMK AO2 SLP214 T00500028
Traffic Incident Summary
Active as of:
Severity:
Category:
InformationThere was an issue retrieving the traffic information for this location. Please try a different location or try again shortly.
Advertisements